sensor_id;sensor_type;location;lat;lon;timestamp;P1;durP1;ratioP1;P2;durP2;ratioP2
15317;SDS011;7759;52.528;13.346;2022-09-09T00:02:27;3.92;;;2.67;;
15317;SDS011;7759;52.528;13.346;2022-09-09T00:05:02;3.58;;;2.72;;
15317;SDS011;7759;52.528;13.346;2022-09-09T00:07:43;3.58;;;2.67;;
15317;SDS011;7759;52.528;13.346;2022-09-09T00:10:20;3.28;;;2.50;;
15317;SDS011;7759;52.528;13.346;2022-09-09T00:13:08;2.95;;;2.38;;
15317;SDS011;7759;52.528;13.346;2022-09-09T00:18:18;3.20;;;2.60;;
15317;SDS011;7759;52.528;13.346;2022-09-09T00:20:58;3.17;;;2.67;;
15317;SDS011;7759;52.528;13.346;2022-09-09T00:23:28;2.90;;;2.63;;
15317;SDS011;7759;52.528;13.346;2022-09-09T00:26:00;3.28;;;2.30;;
15317;SDS011;7759;52.528;13.346;2022-09-09T00:28:28;3.10;;;2.40;;
15317;SDS011;7759;52.528;13.346;2022-09-09T00:30:57;2.20;;;2.00;;
15317;SDS011;7759;52.528;13.346;2022-09-09T00:33:26;2.78;;;2.20;;
15317;SDS011;7759;52.528;13.346;2022-09-09T00:35:56;3.00;;;2.70;;
15317;SDS011;7759;52.528;13.346;2022-09-09T00:38:24;3.25;;;2.95;;
15317;SDS011;7759;52.528;13.346;2022-09-09T00:40:52;5.50;;;2.75;;
15317;SDS011;7759;52.528;13.346;2022-09-09T00:43:24;3.60;;;3.03;;
15317;SDS011;7759;52.528;13.346;2022-09-09T00:45:54;3.55;;;2.70;;
15317;SDS011;7759;52.528;13.346;2022-09-09T00:48:22;3.40;;;2.83;;
15317;SDS011;7759;52.528;13.346;2022-09-09T00:50:55;3.63;;;2.33;;
15317;SDS011;7759;52.528;13.346;2022-09-09T00:58:38;2.67;;;2.40;;
15317;SDS011;7759;52.528;13.346;2022-09-09T01:03:35;7.13;;;2.88;;
15317;SDS011;7759;52.528;13.346;2022-09-09T01:06:20;3.40;;;2.63;;
15317;SDS011;7759;52.528;13.346;2022-09-09T01:08:52;2.90;;;2.60;;
15317;SDS011;7759;52.528;13.346;2022-09-09T01:11:26;3.05;;;2.58;;
15317;SDS011;7759;52.528;13.346;2022-09-09T01:14:02;4.32;;;3.25;;
15317;SDS011;7759;52.528;13.346;2022-09-09T01:16:29;5.53;;;3.55;;
15317;SDS011;7759;52.528;13.346;2022-09-09T01:18:57;2.95;;;2.53;;
15317;SDS011;7759;52.528;13.346;2022-09-09T01:21:28;4.80;;;2.88;;
15317;SDS011;7759;52.528;13.346;2022-09-09T01:26:43;3.72;;;3.05;;
15317;SDS011;7759;52.528;13.346;2022-09-09T01:29:13;3.20;;;2.85;;
15317;SDS011;7759;52.528;13.346;2022-09-09T01:31:53;3.50;;;3.10;;
15317;SDS011;7759;52.528;13.346;2022-09-09T01:34:20;5.28;;;3.10;;
15317;SDS011;7759;52.528;13.346;2022-09-09T01:36:52;3.80;;;2.78;;
15317;SDS011;7759;52.528;13.346;2022-09-09T01:39:20;3.95;;;3.15;;
15317;SDS011;7759;52.528;13.346;2022-09-09T01:41:46;5.15;;;3.00;;
15317;SDS011;7759;52.528;13.346;2022-09-09T01:44:12;3.25;;;2.92;;
15317;SDS011;7759;52.528;13.346;2022-09-09T01:46:38;3.75;;;3.05;;
15317;SDS011;7759;52.528;13.346;2022-09-09T01:49:05;3.28;;;2.83;;
15317;SDS011;7759;52.528;13.346;2022-09-09T01:51:32;3.45;;;3.00;;
15317;SDS011;7759;52.528;13.346;2022-09-09T01:53:58;4.13;;;3.13;;
15317;SDS011;7759;52.528;13.346;2022-09-09T01:56:45;4.15;;;3.22;;
15317;SDS011;7759;52.528;13.346;2022-09-09T02:01:57;3.10;;;2.70;;
15317;SDS011;7759;52.528;13.346;2022-09-09T02:06:50;4.45;;;3.15;;
15317;SDS011;7759;52.528;13.346;2022-09-09T02:09:19;4.50;;;3.40;;
15317;SDS011;7759;52.528;13.346;2022-09-09T02:11:48;3.42;;;2.92;;
15317;SDS011;7759;52.528;13.346;2022-09-09T02:14:21;3.50;;;2.97;;
15317;SDS011;7759;52.528;13.346;2022-09-09T02:16:50;3.73;;;3.00;;
15317;SDS011;7759;52.528;13.346;2022-09-09T02:19:19;4.57;;;2.95;;
15317;SDS011;7759;52.528;13.346;2022-09-09T02:21:50;3.43;;;3.13;;
15317;SDS011;7759;52.528;13.346;2022-09-09T02:24:16;4.47;;;3.17;;
15317;SDS011;7759;52.528;13.346;2022-09-09T02:26:42;4.20;;;3.03;;
15317;SDS011;7759;52.528;13.346;2022-09-09T02:29:18;4.07;;;3.07;;
15317;SDS011;7759;52.528;13.346;2022-09-09T02:31:45;7.15;;;2.90;;
15317;SDS011;7759;52.528;13.346;2022-09-09T02:34:12;3.85;;;3.38;;
15317;SDS011;7759;52.528;13.346;2022-09-09T02:36:40;4.40;;;3.30;;
15317;SDS011;7759;52.528;13.346;2022-09-09T02:39:08;7.30;;;5.13;;
15317;SDS011;7759;52.528;13.346;2022-09-09T02:41:36;3.50;;;2.70;;
15317;SDS011;7759;52.528;13.346;2022-09-09T02:44:13;3.73;;;3.23;;
15317;SDS011;7759;52.528;13.346;2022-09-09T02:56:51;4.43;;;3.08;;
15317;SDS011;7759;52.528;13.346;2022-09-09T02:59:19;4.60;;;3.13;;
15317;SDS011;7759;52.528;13.346;2022-09-09T03:01:45;5.63;;;2.90;;
15317;SDS011;7759;52.528;13.346;2022-09-09T03:04:11;2.63;;;2.30;;
15317;SDS011;7759;52.528;13.346;2022-09-09T03:06:37;3.90;;;3.23;;
15317;SDS011;7759;52.528;13.346;2022-09-09T03:09:03;3.90;;;2.80;;
15317;SDS011;7759;52.528;13.346;2022-09-09T03:11:29;3.28;;;2.85;;
15317;SDS011;7759;52.528;13.346;2022-09-09T03:13:55;4.50;;;3.15;;
15317;SDS011;7759;52.528;13.346;2022-09-09T03:16:22;4.18;;;2.88;;
15317;SDS011;7759;52.528;13.346;2022-09-09T03:18:48;3.80;;;2.90;;
15317;SDS011;7759;52.528;13.346;2022-09-09T03:21:14;4.60;;;2.80;;
15317;SDS011;7759;52.528;13.346;2022-09-09T03:23:40;3.10;;;2.60;;
15317;SDS011;7759;52.528;13.346;2022-09-09T03:26:06;5.20;;;3.00;;
15317;SDS011;7759;52.528;13.346;2022-09-09T03:28:32;4.18;;;2.92;;
15317;SDS011;7759;52.528;13.346;2022-09-09T03:30:59;4.67;;;2.70;;
15317;SDS011;7759;52.528;13.346;2022-09-09T03:33:25;3.97;;;2.80;;
15317;SDS011;7759;52.528;13.346;2022-09-09T03:35:51;3.10;;;2.47;;
15317;SDS011;7759;52.528;13.346;2022-09-09T03:38:16;3.35;;;2.88;;
15317;SDS011;7759;52.528;13.346;2022-09-09T03:40:49;4.80;;;2.87;;
15317;SDS011;7759;52.528;13.346;2022-09-09T03:43:16;4.00;;;2.50;;
15317;SDS011;7759;52.528;13.346;2022-09-09T03:45:45;5.93;;;2.70;;
15317;SDS011;7759;52.528;13.346;2022-09-09T03:48:15;3.00;;;2.70;;
15317;SDS011;7759;52.528;13.346;2022-09-09T03:50:48;3.97;;;2.95;;
15317;SDS011;7759;52.528;13.346;2022-09-09T03:53:14;3.50;;;2.55;;
15317;SDS011;7759;52.528;13.346;2022-09-09T03:55:48;4.17;;;2.50;;
15317;SDS011;7759;52.528;13.346;2022-09-09T03:58:15;2.83;;;2.47;;
15317;SDS011;7759;52.528;13.346;2022-09-09T04:00:41;2.90;;;2.20;;
15317;SDS011;7759;52.528;13.346;2022-09-09T04:03:08;4.90;;;2.47;;
15317;SDS011;7759;52.528;13.346;2022-09-09T04:05:35;3.42;;;2.70;;
15317;SDS011;7759;52.528;13.346;2022-09-09T04:08:04;2.43;;;1.97;;
15317;SDS011;7759;52.528;13.346;2022-09-09T04:10:30;2.88;;;2.30;;
15317;SDS011;7759;52.528;13.346;2022-09-09T04:12:56;3.42;;;2.28;;
15317;SDS011;7759;52.528;13.346;2022-09-09T04:15:22;2.50;;;2.10;;
15317;SDS011;7759;52.528;13.346;2022-09-09T04:17:48;3.83;;;2.17;;
15317;SDS011;7759;52.528;13.346;2022-09-09T04:20:14;4.10;;;2.00;;
15317;SDS011;7759;52.528;13.346;2022-09-09T04:22:40;2.10;;;1.90;;
15317;SDS011;7759;52.528;13.346;2022-09-09T04:25:06;7.37;;;1.87;;
15317;SDS011;7759;52.528;13.346;2022-09-09T04:27:32;3.70;;;2.30;;
15317;SDS011;7759;52.528;13.346;2022-09-09T04:29:58;2.73;;;2.20;;
15317;SDS011;7759;52.528;13.346;2022-09-09T04:32:24;3.60;;;2.35;;
15317;SDS011;7759;52.528;13.346;2022-09-09T04:34:52;4.32;;;2.88;;
15317;SDS011;7759;52.528;13.346;2022-09-09T04:37:18;7.67;;;2.63;;
15317;SDS011;7759;52.528;13.346;2022-09-09T04:39:44;4.40;;;2.10;;
15317;SDS011;7759;52.528;13.346;2022-09-09T04:42:10;2.17;;;1.97;;
15317;SDS011;7759;52.528;13.346;2022-09-09T04:44:36;2.43;;;2.23;;
15317;SDS011;7759;52.528;13.346;2022-09-09T04:47:02;3.20;;;2.20;;
15317;SDS011;7759;52.528;13.346;2022-09-09T04:49:28;3.28;;;2.42;;
15317;SDS011;7759;52.528;13.346;2022-09-09T04:51:56;2.40;;;2.20;;
15317;SDS011;7759;52.528;13.346;2022-09-09T04:54:22;3.05;;;2.55;;
15317;SDS011;7759;52.528;13.346;2022-09-09T04:56:49;3.73;;;2.87;;
15317;SDS011;7759;52.528;13.346;2022-09-09T04:59:15;3.13;;;2.13;;
15317;SDS011;7759;52.528;13.346;2022-09-09T05:01:41;3.30;;;2.75;;
15317;SDS011;7759;52.528;13.346;2022-09-09T05:04:07;4.53;;;3.30;;
15317;SDS011;7759;52.528;13.346;2022-09-09T05:06:33;3.90;;;2.40;;
15317;SDS011;7759;52.528;13.346;2022-09-09T05:09:01;4.80;;;2.50;;
15317;SDS011;7759;52.528;13.346;2022-09-09T05:11:27;2.53;;;2.20;;
15317;SDS011;7759;52.528;13.346;2022-09-09T05:13:54;3.47;;;2.53;;
15317;SDS011;7759;52.528;13.346;2022-09-09T05:16:21;2.30;;;2.10;;
15317;SDS011;7759;52.528;13.346;2022-09-09T05:18:47;3.70;;;2.30;;
15317;SDS011;7759;52.528;13.346;2022-09-09T05:21:15;2.88;;;2.40;;
15317;SDS011;7759;52.528;13.346;2022-09-09T05:23:41;5.53;;;3.53;;
15317;SDS011;7759;52.528;13.346;2022-09-09T05:26:09;3.83;;;2.22;;
15317;SDS011;7759;52.528;13.346;2022-09-09T05:28:37;2.65;;;2.13;;
15317;SDS011;7759;52.528;13.346;2022-09-09T05:31:04;3.78;;;2.20;;
15317;SDS011;7759;52.528;13.346;2022-09-09T05:33:32;2.38;;;2.00;;
15317;SDS011;7759;52.528;13.346;2022-09-09T05:35:59;6.15;;;2.15;;
15317;SDS011;7759;52.528;13.346;2022-09-09T05:38:26;5.00;;;2.15;;
15317;SDS011;7759;52.528;13.346;2022-09-09T05:40:52;2.10;;;1.90;;
15317;SDS011;7759;52.528;13.346;2022-09-09T05:43:19;3.47;;;1.98;;
15317;SDS011;7759;52.528;13.346;2022-09-09T05:45:48;6.97;;;2.35;;
15317;SDS011;7759;52.528;13.346;2022-09-09T05:48:14;3.90;;;2.20;;
15317;SDS011;7759;52.528;13.346;2022-09-09T05:50:41;4.20;;;2.38;;
15317;SDS011;7759;52.528;13.346;2022-09-09T05:53:07;3.03;;;1.90;;
15317;SDS011;7759;52.528;13.346;2022-09-09T05:55:33;4.75;;;2.15;;
15317;SDS011;7759;52.528;13.346;2022-09-09T05:57:59;5.18;;;2.15;;
15317;SDS011;7759;52.528;13.346;2022-09-09T06:00:26;4.78;;;2.28;;
15317;SDS011;7759;52.528;13.346;2022-09-09T06:02:52;4.68;;;1.83;;
15317;SDS011;7759;52.528;13.346;2022-09-09T06:05:18;4.30;;;2.03;;
15317;SDS011;7759;52.528;13.346;2022-09-09T06:07:45;6.13;;;2.30;;
15317;SDS011;7759;52.528;13.346;2022-09-09T06:10:11;2.80;;;1.80;;
15317;SDS011;7759;52.528;13.346;2022-09-09T06:12:40;2.35;;;1.88;;
15317;SDS011;7759;52.528;13.346;2022-09-09T06:15:06;5.07;;;3.25;;
15317;SDS011;7759;52.528;13.346;2022-09-09T06:17:33;4.70;;;2.33;;
15317;SDS011;7759;52.528;13.346;2022-09-09T06:19:59;4.47;;;2.33;;
15317;SDS011;7759;52.528;13.346;2022-09-09T06:22:25;4.55;;;2.22;;
15317;SDS011;7759;52.528;13.346;2022-09-09T06:24:51;2.75;;;2.38;;
15317;SDS011;7759;52.528;13.346;2022-09-09T06:27:18;3.80;;;2.17;;
15317;SDS011;7759;52.528;13.346;2022-09-09T06:29:44;4.72;;;2.40;;
15317;SDS011;7759;52.528;13.346;2022-09-09T06:32:10;5.88;;;2.40;;
15317;SDS011;7759;52.528;13.346;2022-09-09T06:34:35;5.28;;;2.00;;
15317;SDS011;7759;52.528;13.346;2022-09-09T06:37:01;3.10;;;2.40;;
15317;SDS011;7759;52.528;13.346;2022-09-09T06:39:27;3.45;;;2.05;;
15317;SDS011;7759;52.528;13.346;2022-09-09T06:41:53;4.95;;;2.20;;
15317;SDS011;7759;52.528;13.346;2022-09-09T06:44:20;6.13;;;2.30;;
15317;SDS011;7759;52.528;13.346;2022-09-09T06:46:47;2.40;;;1.92;;
15317;SDS011;7759;52.528;13.346;2022-09-09T06:49:13;6.00;;;2.13;;
15317;SDS011;7759;52.528;13.346;2022-09-09T06:51:39;5.28;;;1.92;;
15317;SDS011;7759;52.528;13.346;2022-09-09T06:54:07;2.72;;;1.98;;
15317;SDS011;7759;52.528;13.346;2022-09-09T06:56:34;3.28;;;2.08;;
15317;SDS011;7759;52.528;13.346;2022-09-09T06:59:01;4.00;;;2.08;;
15317;SDS011;7759;52.528;13.346;2022-09-09T07:01:29;4.75;;;1.90;;
15317;SDS011;7759;52.528;13.346;2022-09-09T07:03:56;3.10;;;1.83;;
15317;SDS011;7759;52.528;13.346;2022-09-09T07:06:24;2.03;;;1.80;;
15317;SDS011;7759;52.528;13.346;2022-09-09T07:08:51;2.72;;;1.60;;
15317;SDS011;7759;52.528;13.346;2022-09-09T07:11:18;2.67;;;1.48;;
15317;SDS011;7759;52.528;13.346;2022-09-09T07:13:44;2.40;;;1.90;;
15317;SDS011;7759;52.528;13.346;2022-09-09T07:16:11;3.00;;;1.70;;
15317;SDS011;7759;52.528;13.346;2022-09-09T07:18:37;2.13;;;1.73;;
15317;SDS011;7759;52.528;13.346;2022-09-09T07:21:04;4.25;;;1.95;;
15317;SDS011;7759;52.528;13.346;2022-09-09T07:23:31;2.10;;;1.60;;
15317;SDS011;7759;52.528;13.346;2022-09-09T07:25:57;2.38;;;1.58;;
15317;SDS011;7759;52.528;13.346;2022-09-09T07:28:24;4.35;;;1.60;;
15317;SDS011;7759;52.528;13.346;2022-09-09T07:30:54;4.13;;;1.70;;
15317;SDS011;7759;52.528;13.346;2022-09-09T07:33:20;3.40;;;1.52;;
15317;SDS011;7759;52.528;13.346;2022-09-09T07:35:45;4.47;;;1.80;;
15317;SDS011;7759;52.528;13.346;2022-09-09T07:38:11;4.03;;;1.30;;
15317;SDS011;7759;52.528;13.346;2022-09-09T07:40:37;4.63;;;1.20;;
15317;SDS011;7759;52.528;13.346;2022-09-09T07:43:04;2.60;;;1.15;;
15317;SDS011;7759;52.528;13.346;2022-09-09T07:45:30;2.33;;;1.20;;
15317;SDS011;7759;52.528;13.346;2022-09-09T07:47:57;1.83;;;0.90;;
15317;SDS011;7759;52.528;13.346;2022-09-09T07:50:23;1.25;;;1.08;;
15317;SDS011;7759;52.528;13.346;2022-09-09T07:52:50;7.88;;;2.60;;
15317;SDS011;7759;52.528;13.346;2022-09-09T07:55:16;2.25;;;1.50;;
15317;SDS011;7759;52.528;13.346;2022-09-09T07:57:42;2.88;;;1.48;;
15317;SDS011;7759;52.528;13.346;2022-09-09T08:00:08;1.83;;;1.30;;
15317;SDS011;7759;52.528;13.346;2022-09-09T08:02:35;1.60;;;1.10;;
15317;SDS011;7759;52.528;13.346;2022-09-09T08:05:02;2.58;;;1.33;;
15317;SDS011;7759;52.528;13.346;2022-09-09T08:07:28;3.10;;;1.38;;
15317;SDS011;7759;52.528;13.346;2022-09-09T08:09:54;2.75;;;1.45;;
15317;SDS011;7759;52.528;13.346;2022-09-09T08:12:20;1.73;;;1.00;;
15317;SDS011;7759;52.528;13.346;2022-09-09T08:14:46;2.08;;;1.20;;
15317;SDS011;7759;52.528;13.346;2022-09-09T08:17:13;4.43;;;1.40;;
15317;SDS011;7759;52.528;13.346;2022-09-09T08:19:39;4.40;;;1.35;;
15317;SDS011;7759;52.528;13.346;2022-09-09T08:22:05;1.25;;;1.00;;
15317;SDS011;7759;52.528;13.346;2022-09-09T08:24:31;1.50;;;0.80;;
15317;SDS011;7759;52.528;13.346;2022-09-09T08:26:57;2.88;;;1.33;;
15317;SDS011;7759;52.528;13.346;2022-09-09T08:29:23;2.45;;;1.00;;
15317;SDS011;7759;52.528;13.346;2022-09-09T08:31:50;2.63;;;1.48;;
15317;SDS011;7759;52.528;13.346;2022-09-09T08:34:16;2.80;;;1.63;;
15317;SDS011;7759;52.528;13.346;2022-09-09T08:36:45;1.50;;;1.00;;
15317;SDS011;7759;52.528;13.346;2022-09-09T08:39:12;2.40;;;1.10;;
15317;SDS011;7759;52.528;13.346;2022-09-09T08:41:49;2.05;;;1.10;;
15317;SDS011;7759;52.528;13.346;2022-09-09T08:47:21;1.95;;;1.02;;
15317;SDS011;7759;52.528;13.346;2022-09-09T08:52:44;0.75;;;0.75;;
15317;SDS011;7759;52.528;13.346;2022-09-09T08:55:27;2.80;;;1.00;;
15317;SDS011;7759;52.528;13.346;2022-09-09T08:57:55;2.05;;;1.20;;
15317;SDS011;7759;52.528;13.346;2022-09-09T09:00:22;1.02;;;0.98;;
15317;SDS011;7759;52.528;13.346;2022-09-09T09:02:57;1.50;;;1.13;;
15317;SDS011;7759;52.528;13.346;2022-09-09T09:05:32;3.20;;;1.10;;
15317;SDS011;7759;52.528;13.346;2022-09-09T09:08:08;7.05;;;1.45;;
15317;SDS011;7759;52.528;13.346;2022-09-09T09:10:39;3.50;;;1.00;;
15317;SDS011;7759;52.528;13.346;2022-09-09T09:13:11;2.42;;;1.30;;
15317;SDS011;7759;52.528;13.346;2022-09-09T09:15:38;2.72;;;1.00;;
15317;SDS011;7759;52.528;13.346;2022-09-09T09:18:04;2.15;;;1.15;;
15317;SDS011;7759;52.528;13.346;2022-09-09T09:20:40;3.10;;;1.15;;
15317;SDS011;7759;52.528;13.346;2022-09-09T09:23:09;3.00;;;1.20;;
15317;SDS011;7759;52.528;13.346;2022-09-09T09:25:39;1.40;;;1.30;;
15317;SDS011;7759;52.528;13.346;2022-09-09T09:28:17;1.15;;;0.93;;
15317;SDS011;7759;52.528;13.346;2022-09-09T09:30:45;3.45;;;1.20;;
15317;SDS011;7759;52.528;13.346;2022-09-09T09:33:23;2.08;;;1.33;;
15317;SDS011;7759;52.528;13.346;2022-09-09T09:35:50;2.55;;;1.10;;
15317;SDS011;7759;52.528;13.346;2022-09-09T09:38:17;2.22;;;1.10;;
15317;SDS011;7759;52.528;13.346;2022-09-09T09:40:48;1.38;;;1.00;;
15317;SDS011;7759;52.528;13.346;2022-09-09T09:43:18;2.45;;;1.30;;
15317;SDS011;7759;52.528;13.346;2022-09-09T09:45:45;3.92;;;1.95;;
15317;SDS011;7759;52.528;13.346;2022-09-09T09:48:12;1.75;;;1.05;;
15317;SDS011;7759;52.528;13.346;2022-09-09T09:50:49;1.92;;;0.95;;
15317;SDS011;7759;52.528;13.346;2022-09-09T09:53:20;2.97;;;1.20;;
15317;SDS011;7759;52.528;13.346;2022-09-09T09:55:50;1.23;;;1.02;;
15317;SDS011;7759;52.528;13.346;2022-09-09T09:58:18;1.55;;;0.98;;
15317;SDS011;7759;52.528;13.346;2022-09-09T10:00:47;2.50;;;0.90;;
15317;SDS011;7759;52.528;13.346;2022-09-09T10:05:49;1.00;;;0.90;;
15317;SDS011;7759;52.528;13.346;2022-09-09T10:08:16;3.22;;;1.25;;
15317;SDS011;7759;52.528;13.346;2022-09-09T10:10:49;3.15;;;0.90;;
15317;SDS011;7759;52.528;13.346;2022-09-09T10:13:22;2.38;;;1.02;;
15317;SDS011;7759;52.528;13.346;2022-09-09T10:15:53;1.52;;;1.00;;
15317;SDS011;7759;52.528;13.346;2022-09-09T10:26:25;2.90;;;1.25;;
15317;SDS011;7759;52.528;13.346;2022-09-09T10:29:05;3.13;;;1.05;;
15317;SDS011;7759;52.528;13.346;2022-09-09T10:31:56;1.30;;;1.08;;
15317;SDS011;7759;52.528;13.346;2022-09-09T10:34:36;1.83;;;0.85;;
15317;SDS011;7759;52.528;13.346;2022-09-09T10:37:08;3.92;;;0.95;;
15317;SDS011;7759;52.528;13.346;2022-09-09T10:39:39;3.72;;;0.95;;
15317;SDS011;7759;52.528;13.346;2022-09-09T10:42:15;1.23;;;0.90;;
15317;SDS011;7759;52.528;13.346;2022-09-09T10:47:33;2.65;;;1.08;;
15317;SDS011;7759;52.528;13.346;2022-09-09T10:50:08;2.63;;;1.30;;
15317;SDS011;7759;52.528;13.346;2022-09-09T10:55:19;2.83;;;1.08;;
15317;SDS011;7759;52.528;13.346;2022-09-09T10:57:46;2.42;;;0.90;;
15317;SDS011;7759;52.528;13.346;2022-09-09T11:00:15;1.20;;;0.90;;
15317;SDS011;7759;52.528;13.346;2022-09-09T11:02:42;1.45;;;1.02;;
15317;SDS011;7759;52.528;13.346;2022-09-09T11:05:10;2.10;;;0.90;;
15317;SDS011;7759;52.528;13.346;2022-09-09T11:07:41;1.60;;;0.70;;
15317;SDS011;7759;52.528;13.346;2022-09-09T11:12:43;1.60;;;1.05;;
15317;SDS011;7759;52.528;13.346;2022-09-09T11:15:14;3.45;;;0.98;;
15317;SDS011;7759;52.528;13.346;2022-09-09T11:17:46;1.30;;;0.80;;
15317;SDS011;7759;52.528;13.346;2022-09-09T11:20:14;0.88;;;0.77;;
15317;SDS011;7759;52.528;13.346;2022-09-09T11:27:51;1.50;;;1.02;;
15317;SDS011;7759;52.528;13.346;2022-09-09T11:30:19;0.80;;;0.77;;
15317;SDS011;7759;52.528;13.346;2022-09-09T11:35:38;4.25;;;1.55;;
15317;SDS011;7759;52.528;13.346;2022-09-09T11:40:40;1.38;;;1.17;;
15317;SDS011;7759;52.528;13.346;2022-09-09T11:45:37;1.23;;;0.93;;
15317;SDS011;7759;52.528;13.346;2022-09-09T11:48:04;3.58;;;1.60;;
15317;SDS011;7759;52.528;13.346;2022-09-09T11:50:34;4.10;;;1.83;;
15317;SDS011;7759;52.528;13.346;2022-09-09T11:55:39;2.88;;;1.02;;
15317;SDS011;7759;52.528;13.346;2022-09-09T11:58:05;7.65;;;2.28;;
15317;SDS011;7759;52.528;13.346;2022-09-09T12:00:41;2.33;;;0.90;;
15317;SDS011;7759;52.528;13.346;2022-09-09T12:03:31;3.03;;;0.95;;
15317;SDS011;7759;52.528;13.346;2022-09-09T12:05:54;1.33;;;0.80;;
15317;SDS011;7759;52.528;13.346;2022-09-09T12:08:23;2.95;;;1.55;;
15317;SDS011;7759;52.528;13.346;2022-09-09T12:10:56;2.08;;;0.90;;
15317;SDS011;7759;52.528;13.346;2022-09-09T12:13:24;1.83;;;1.17;;
15317;SDS011;7759;52.528;13.346;2022-09-09T12:15:51;0.85;;;0.80;;
15317;SDS011;7759;52.528;13.346;2022-09-09T12:18:21;2.00;;;0.70;;
15317;SDS011;7759;52.528;13.346;2022-09-09T12:20:51;1.00;;;0.90;;
15317;SDS011;7759;52.528;13.346;2022-09-09T12:23:20;3.25;;;0.70;;
15317;SDS011;7759;52.528;13.346;2022-09-09T12:25:58;1.00;;;0.88;;
15317;SDS011;7759;52.528;13.346;2022-09-09T12:28:36;2.30;;;1.35;;
15317;SDS011;7759;52.528;13.346;2022-09-09T12:31:07;1.08;;;0.75;;
15317;SDS011;7759;52.528;13.346;2022-09-09T12:33:36;1.48;;;0.77;;
15317;SDS011;7759;52.528;13.346;2022-09-09T12:36:04;1.13;;;1.02;;
15317;SDS011;7759;52.528;13.346;2022-09-09T12:38:36;0.88;;;0.60;;
15317;SDS011;7759;52.528;13.346;2022-09-09T12:41:02;0.82;;;0.75;;
15317;SDS011;7759;52.528;13.346;2022-09-09T12:43:28;0.95;;;0.70;;
15317;SDS011;7759;52.528;13.346;2022-09-09T12:45:56;4.78;;;1.08;;
15317;SDS011;7759;52.528;13.346;2022-09-09T12:48:36;1.40;;;0.90;;
15317;SDS011;7759;52.528;13.346;2022-09-09T12:51:03;3.65;;;1.13;;
15317;SDS011;7759;52.528;13.346;2022-09-09T12:53:32;1.40;;;0.60;;
15317;SDS011;7759;52.528;13.346;2022-09-09T12:56:00;3.33;;;1.00;;
15317;SDS011;7759;52.528;13.346;2022-09-09T12:58:31;4.10;;;0.98;;
15317;SDS011;7759;52.528;13.346;2022-09-09T13:00:58;2.00;;;0.80;;
15317;SDS011;7759;52.528;13.346;2022-09-09T13:03:24;1.38;;;0.77;;
15317;SDS011;7759;52.528;13.346;2022-09-09T13:05:51;3.03;;;0.90;;
15317;SDS011;7759;52.528;13.346;2022-09-09T13:08:18;1.15;;;0.70;;
15317;SDS011;7759;52.528;13.346;2022-09-09T13:13:22;1.50;;;0.65;;
15317;SDS011;7759;52.528;13.346;2022-09-09T13:15:49;2.00;;;0.77;;
15317;SDS011;7759;52.528;13.346;2022-09-09T13:18:16;2.05;;;0.82;;
15317;SDS011;7759;52.528;13.346;2022-09-09T13:20:49;0.80;;;0.70;;
15317;SDS011;7759;52.528;13.346;2022-09-09T13:23:16;1.60;;;0.90;;
15317;SDS011;7759;52.528;13.346;2022-09-09T13:25:52;2.70;;;1.40;;
15317;SDS011;7759;52.528;13.346;2022-09-09T13:28:20;2.30;;;0.82;;
15317;SDS011;7759;52.528;13.346;2022-09-09T13:30:54;2.97;;;0.70;;
15317;SDS011;7759;52.528;13.346;2022-09-09T13:33:23;0.93;;;0.70;;
15317;SDS011;7759;52.528;13.346;2022-09-09T13:35:58;3.63;;;0.98;;
15317;SDS011;7759;52.528;13.346;2022-09-09T13:38:25;2.10;;;0.73;;
15317;SDS011;7759;52.528;13.346;2022-09-09T13:40:56;3.08;;;0.90;;
15317;SDS011;7759;52.528;13.346;2022-09-09T13:43:24;2.15;;;0.70;;
15317;SDS011;7759;52.528;13.346;2022-09-09T13:45:55;1.70;;;0.80;;
15317;SDS011;7759;52.528;13.346;2022-09-09T13:48:21;3.42;;;0.65;;
15317;SDS011;7759;52.528;13.346;2022-09-09T13:51:25;1.42;;;0.57;;
15317;SDS011;7759;52.528;13.346;2022-09-09T13:53:39;1.70;;;0.70;;
15317;SDS011;7759;52.528;13.346;2022-09-09T13:56:05;1.85;;;0.50;;
15317;SDS011;7759;52.528;13.346;2022-09-09T13:58:31;1.55;;;0.73;;
15317;SDS011;7759;52.528;13.346;2022-09-09T14:00:57;3.05;;;0.75;;
15317;SDS011;7759;52.528;13.346;2022-09-09T14:03:23;3.22;;;0.93;;
15317;SDS011;7759;52.528;13.346;2022-09-09T14:05:49;3.08;;;0.90;;
15317;SDS011;7759;52.528;13.346;2022-09-09T14:08:18;2.78;;;0.80;;
15317;SDS011;7759;52.528;13.346;2022-09-09T14:10:46;1.40;;;0.63;;
15317;SDS011;7759;52.528;13.346;2022-09-09T14:13:12;1.10;;;0.70;;
15317;SDS011;7759;52.528;13.346;2022-09-09T14:15:38;1.58;;;0.77;;
15317;SDS011;7759;52.528;13.346;2022-09-09T14:18:04;3.75;;;0.75;;
15317;SDS011;7759;52.528;13.346;2022-09-09T14:20:30;0.98;;;0.68;;
15317;SDS011;7759;52.528;13.346;2022-09-09T14:22:56;2.42;;;0.93;;
15317;SDS011;7759;52.528;13.346;2022-09-09T14:25:22;1.80;;;0.73;;
15317;SDS011;7759;52.528;13.346;2022-09-09T14:27:48;1.10;;;0.80;;
15317;SDS011;7759;52.528;13.346;2022-09-09T14:30:16;1.63;;;0.70;;
15317;SDS011;7759;52.528;13.346;2022-09-09T14:32:42;2.83;;;0.90;;
15317;SDS011;7759;52.528;13.346;2022-09-09T14:35:07;1.45;;;0.80;;
15317;SDS011;7759;52.528;13.346;2022-09-09T14:37:33;1.88;;;1.00;;
15317;SDS011;7759;52.528;13.346;2022-09-09T14:39:59;1.10;;;0.98;;
15317;SDS011;7759;52.528;13.346;2022-09-09T14:42:25;2.55;;;1.02;;
15317;SDS011;7759;52.528;13.346;2022-09-09T14:44:51;1.42;;;0.90;;
15317;SDS011;7759;52.528;13.346;2022-09-09T14:47:17;2.83;;;1.23;;
15317;SDS011;7759;52.528;13.346;2022-09-09T14:49:43;2.13;;;0.90;;
15317;SDS011;7759;52.528;13.346;2022-09-09T14:52:10;1.85;;;1.65;;
15317;SDS011;7759;52.528;13.346;2022-09-09T14:54:36;1.90;;;0.90;;
15317;SDS011;7759;52.528;13.346;2022-09-09T14:57:02;2.15;;;0.88;;
15317;SDS011;7759;52.528;13.346;2022-09-09T14:59:28;2.60;;;0.75;;
15317;SDS011;7759;52.528;13.346;2022-09-09T15:01:54;2.50;;;1.30;;
15317;SDS011;7759;52.528;13.346;2022-09-09T15:04:20;1.25;;;0.70;;
15317;SDS011;7759;52.528;13.346;2022-09-09T15:06:46;1.90;;;1.05;;
15317;SDS011;7759;52.528;13.346;2022-09-09T15:09:13;2.47;;;0.82;;
15317;SDS011;7759;52.528;13.346;2022-09-09T15:11:39;0.80;;;0.70;;
15317;SDS011;7759;52.528;13.346;2022-09-09T15:14:06;1.88;;;0.60;;
15317;SDS011;7759;52.528;13.346;2022-09-09T15:16:32;4.20;;;0.98;;
15317;SDS011;7759;52.528;13.346;2022-09-09T15:18:59;1.70;;;0.73;;
15317;SDS011;7759;52.528;13.346;2022-09-09T15:21:26;1.90;;;1.13;;
15317;SDS011;7759;52.528;13.346;2022-09-09T15:23:52;1.10;;;0.90;;
15317;SDS011;7759;52.528;13.346;2022-09-09T15:26:19;0.93;;;0.80;;
15317;SDS011;7759;52.528;13.346;2022-09-09T15:28:45;2.70;;;0.80;;
15317;SDS011;7759;52.528;13.346;2022-09-09T15:31:13;2.15;;;1.52;;
15317;SDS011;7759;52.528;13.346;2022-09-09T15:33:40;2.00;;;1.00;;
15317;SDS011;7759;52.528;13.346;2022-09-09T15:36:13;2.28;;;0.90;;
15317;SDS011;7759;52.528;13.346;2022-09-09T15:38:39;2.42;;;1.08;;
15317;SDS011;7759;52.528;13.346;2022-09-09T15:41:05;7.22;;;3.50;;
15317;SDS011;7759;52.528;13.346;2022-09-09T15:43:31;2.10;;;1.02;;
15317;SDS011;7759;52.528;13.346;2022-09-09T15:45:59;2.22;;;1.20;;
15317;SDS011;7759;52.528;13.346;2022-09-09T15:48:30;3.00;;;1.45;;
15317;SDS011;7759;52.528;13.346;2022-09-09T15:51:02;2.42;;;1.10;;
15317;SDS011;7759;52.528;13.346;2022-09-09T15:53:29;1.75;;;1.20;;
15317;SDS011;7759;52.528;13.346;2022-09-09T15:55:57;2.75;;;1.00;;
15317;SDS011;7759;52.528;13.346;2022-09-09T15:58:23;3.00;;;1.10;;
15317;SDS011;7759;52.528;13.346;2022-09-09T16:00:49;2.20;;;0.98;;
15317;SDS011;7759;52.528;13.346;2022-09-09T16:03:15;4.18;;;1.48;;
15317;SDS011;7759;52.528;13.346;2022-09-09T16:05:41;3.75;;;1.10;;
15317;SDS011;7759;52.528;13.346;2022-09-09T16:08:06;1.85;;;1.00;;